sensor_id;sensor_type;location;lat;lon;timestamp;P1;durP1;ratioP1;P2;durP2;ratioP2
3563;SDS011;1796;52.388;13.096;2023-12-20T00:01:34;4.57;;;4.27;;
3563;SDS011;1796;52.388;13.096;2023-12-20T00:04:03;4.10;;;3.70;;
3563;SDS011;1796;52.388;13.096;2023-12-20T00:06:30;3.50;;;3.30;;
3563;SDS011;1796;52.388;13.096;2023-12-20T00:08:57;3.50;;;3.30;;
3563;SDS011;1796;52.388;13.096;2023-12-20T00:11:23;3.90;;;3.60;;
3563;SDS011;1796;52.388;13.096;2023-12-20T00:13:50;4.07;;;3.77;;
3563;SDS011;1796;52.388;13.096;2023-12-20T00:16:18;3.83;;;3.53;;
3563;SDS011;1796;52.388;13.096;2023-12-20T00:18:45;3.90;;;3.70;;
3563;SDS011;1796;52.388;13.096;2023-12-20T00:21:13;3.90;;;3.60;;
3563;SDS011;1796;52.388;13.096;2023-12-20T00:23:40;3.90;;;3.70;;
3563;SDS011;1796;52.388;13.096;2023-12-20T00:26:07;3.80;;;3.60;;
3563;SDS011;1796;52.388;13.096;2023-12-20T00:28:34;3.73;;;3.43;;
3563;SDS011;1796;52.388;13.096;2023-12-20T00:31:00;3.60;;;3.30;;
3563;SDS011;1796;52.388;13.096;2023-12-20T00:33:27;3.70;;;3.50;;
3563;SDS011;1796;52.388;13.096;2023-12-20T00:35:54;4.37;;;3.97;;
3563;SDS011;1796;52.388;13.096;2023-12-20T00:38:22;4.10;;;3.80;;
3563;SDS011;1796;52.388;13.096;2023-12-20T00:40:49;3.30;;;3.10;;
3563;SDS011;1796;52.388;13.096;2023-12-20T00:43:16;3.30;;;3.20;;
3563;SDS011;1796;52.388;13.096;2023-12-20T00:45:43;2.97;;;2.87;;
3563;SDS011;1796;52.388;13.096;2023-12-20T00:48:17;4.87;;;3.63;;
3563;SDS011;1796;52.388;13.096;2023-12-20T00:50:44;3.53;;;3.33;;
3563;SDS011;1796;52.388;13.096;2023-12-20T00:53:11;4.10;;;3.80;;
3563;SDS011;1796;52.388;13.096;2023-12-20T00:55:39;3.27;;;3.07;;
3563;SDS011;1796;52.388;13.096;2023-12-20T00:58:06;3.47;;;3.27;;
3563;SDS011;1796;52.388;13.096;2023-12-20T01:00:33;2.60;;;2.50;;
3563;SDS011;1796;52.388;13.096;2023-12-20T01:03:01;3.40;;;3.20;;
3563;SDS011;1796;52.388;13.096;2023-12-20T01:05:28;3.00;;;2.90;;
3563;SDS011;1796;52.388;13.096;2023-12-20T01:07:55;3.70;;;3.50;;
3563;SDS011;1796;52.388;13.096;2023-12-20T01:10:22;3.47;;;3.27;;
3563;SDS011;1796;52.388;13.096;2023-12-20T01:12:50;4.00;;;3.70;;
3563;SDS011;1796;52.388;13.096;2023-12-20T01:15:17;3.83;;;3.63;;
3563;SDS011;1796;52.388;13.096;2023-12-20T01:17:44;3.50;;;3.23;;
3563;SDS011;1796;52.388;13.096;2023-12-20T01:20:11;3.47;;;3.27;;
3563;SDS011;1796;52.388;13.096;2023-12-20T01:22:38;3.83;;;3.47;;
3563;SDS011;1796;52.388;13.096;2023-12-20T01:25:05;3.73;;;3.53;;
3563;SDS011;1796;52.388;13.096;2023-12-20T01:27:33;3.07;;;2.87;;
3563;SDS011;1796;52.388;13.096;2023-12-20T01:30:01;3.90;;;3.70;;
3563;SDS011;1796;52.388;13.096;2023-12-20T01:32:28;3.37;;;3.17;;
3563;SDS011;1796;52.388;13.096;2023-12-20T01:34:55;3.43;;;3.13;;
3563;SDS011;1796;52.388;13.096;2023-12-20T01:37:22;3.87;;;3.57;;
3563;SDS011;1796;52.388;13.096;2023-12-20T01:39:50;3.43;;;3.33;;
3563;SDS011;1796;52.388;13.096;2023-12-20T01:42:18;3.83;;;3.63;;
3563;SDS011;1796;52.388;13.096;2023-12-20T01:44:44;3.43;;;3.13;;
3563;SDS011;1796;52.388;13.096;2023-12-20T01:47:13;3.63;;;3.43;;
3563;SDS011;1796;52.388;13.096;2023-12-20T01:49:40;3.80;;;3.60;;
3563;SDS011;1796;52.388;13.096;2023-12-20T01:52:07;3.13;;;3.03;;
3563;SDS011;1796;52.388;13.096;2023-12-20T01:54:35;3.50;;;3.30;;
3563;SDS011;1796;52.388;13.096;2023-12-20T01:57:05;4.10;;;3.80;;
3563;SDS011;1796;52.388;13.096;2023-12-20T01:59:33;4.23;;;3.93;;
3563;SDS011;1796;52.388;13.096;2023-12-20T02:02:01;4.30;;;3.30;;
3563;SDS011;1796;52.388;13.096;2023-12-20T02:04:31;3.87;;;3.67;;
3563;SDS011;1796;52.388;13.096;2023-12-20T02:06:58;4.53;;;4.23;;
3563;SDS011;1796;52.388;13.096;2023-12-20T02:09:25;4.87;;;4.47;;
3563;SDS011;1796;52.388;13.096;2023-12-20T02:11:53;4.80;;;4.50;;
3563;SDS011;1796;52.388;13.096;2023-12-20T02:14:20;9.00;;;5.40;;
3563;SDS011;1796;52.388;13.096;2023-12-20T02:16:47;5.73;;;4.70;;
3563;SDS011;1796;52.388;13.096;2023-12-20T02:19:14;10.30;;;5.13;;
3563;SDS011;1796;52.388;13.096;2023-12-20T02:21:45;5.13;;;4.73;;
3563;SDS011;1796;52.388;13.096;2023-12-20T02:24:11;4.97;;;4.57;;
3563;SDS011;1796;52.388;13.096;2023-12-20T02:26:38;4.90;;;4.50;;
3563;SDS011;1796;52.388;13.096;2023-12-20T02:29:06;4.90;;;4.50;;
3563;SDS011;1796;52.388;13.096;2023-12-20T02:31:33;4.70;;;4.30;;
3563;SDS011;1796;52.388;13.096;2023-12-20T02:34:00;5.30;;;4.90;;
3563;SDS011;1796;52.388;13.096;2023-12-20T02:36:26;5.53;;;5.00;;
3563;SDS011;1796;52.388;13.096;2023-12-20T02:38:55;5.73;;;5.33;;
3563;SDS011;1796;52.388;13.096;2023-12-20T02:41:21;6.70;;;6.10;;
3563;SDS011;1796;52.388;13.096;2023-12-20T02:43:48;6.40;;;5.80;;
3563;SDS011;1796;52.388;13.096;2023-12-20T02:46:15;7.27;;;5.70;;
3563;SDS011;1796;52.388;13.096;2023-12-20T02:48:43;8.33;;;5.20;;
3563;SDS011;1796;52.388;13.096;2023-12-20T02:51:10;6.23;;;5.50;;
3563;SDS011;1796;52.388;13.096;2023-12-20T02:53:36;6.10;;;5.50;;
3563;SDS011;1796;52.388;13.096;2023-12-20T02:56:05;6.67;;;6.07;;
3563;SDS011;1796;52.388;13.096;2023-12-20T02:58:32;8.77;;;6.20;;
3563;SDS011;1796;52.388;13.096;2023-12-20T03:00:59;8.70;;;6.00;;
3563;SDS011;1796;52.388;13.096;2023-12-20T03:03:26;10.00;;;6.10;;
3563;SDS011;1796;52.388;13.096;2023-12-20T03:05:53;6.00;;;5.50;;
3563;SDS011;1796;52.388;13.096;2023-12-20T03:08:20;10.97;;;7.20;;
3563;SDS011;1796;52.388;13.096;2023-12-20T03:10:46;9.70;;;7.20;;
3563;SDS011;1796;52.388;13.096;2023-12-20T03:13:15;6.83;;;6.13;;
3563;SDS011;1796;52.388;13.096;2023-12-20T03:15:41;7.20;;;6.00;;
3563;SDS011;1796;52.388;13.096;2023-12-20T03:18:08;15.10;;;6.73;;
3563;SDS011;1796;52.388;13.096;2023-12-20T03:20:35;7.50;;;6.67;;
3563;SDS011;1796;52.388;13.096;2023-12-20T03:23:02;7.83;;;6.90;;
3563;SDS011;1796;52.388;13.096;2023-12-20T03:25:29;12.23;;;6.90;;
3563;SDS011;1796;52.388;13.096;2023-12-20T03:27:56;9.53;;;6.67;;
3563;SDS011;1796;52.388;13.096;2023-12-20T03:30:24;8.77;;;5.73;;
3563;SDS011;1796;52.388;13.096;2023-12-20T03:32:51;12.00;;;6.07;;
3563;SDS011;1796;52.388;13.096;2023-12-20T03:35:18;9.60;;;7.33;;
3563;SDS011;1796;52.388;13.096;2023-12-20T03:37:45;6.97;;;6.37;;
3563;SDS011;1796;52.388;13.096;2023-12-20T03:40:11;9.10;;;7.10;;
3563;SDS011;1796;52.388;13.096;2023-12-20T03:42:38;13.23;;;7.17;;
3563;SDS011;1796;52.388;13.096;2023-12-20T03:45:06;10.07;;;7.70;;
3563;SDS011;1796;52.388;13.096;2023-12-20T03:47:34;12.83;;;7.73;;
3563;SDS011;1796;52.388;13.096;2023-12-20T03:50:01;16.70;;;9.87;;
3563;SDS011;1796;52.388;13.096;2023-12-20T03:52:28;10.13;;;8.23;;
3563;SDS011;1796;52.388;13.096;2023-12-20T03:54:55;12.30;;;7.30;;
3563;SDS011;1796;52.388;13.096;2023-12-20T03:57:22;10.77;;;6.63;;
3563;SDS011;1796;52.388;13.096;2023-12-20T03:59:49;7.00;;;5.97;;
3563;SDS011;1796;52.388;13.096;2023-12-20T04:02:16;8.33;;;5.43;;
3563;SDS011;1796;52.388;13.096;2023-12-20T04:04:45;15.47;;;5.67;;
3563;SDS011;1796;52.388;13.096;2023-12-20T04:07:12;14.40;;;5.27;;
3563;SDS011;1796;52.388;13.096;2023-12-20T04:09:38;7.00;;;4.80;;
3563;SDS011;1796;52.388;13.096;2023-12-20T04:12:07;8.13;;;4.73;;
3563;SDS011;1796;52.388;13.096;2023-12-20T04:14:33;7.60;;;5.20;;
3563;SDS011;1796;52.388;13.096;2023-12-20T04:17:00;9.57;;;5.53;;
3563;SDS011;1796;52.388;13.096;2023-12-20T04:19:27;10.43;;;4.97;;
3563;SDS011;1796;52.388;13.096;2023-12-20T04:21:56;13.77;;;5.00;;
3563;SDS011;1796;52.388;13.096;2023-12-20T04:24:22;10.63;;;3.87;;
3563;SDS011;1796;52.388;13.096;2023-12-20T04:26:49;15.23;;;4.07;;
3563;SDS011;1796;52.388;13.096;2023-12-20T04:29:16;7.47;;;4.27;;
3563;SDS011;1796;52.388;13.096;2023-12-20T04:31:43;6.63;;;3.30;;
3563;SDS011;1796;52.388;13.096;2023-12-20T04:34:10;8.93;;;3.13;;
3563;SDS011;1796;52.388;13.096;2023-12-20T04:36:37;11.80;;;3.00;;
3563;SDS011;1796;52.388;13.096;2023-12-20T04:39:05;10.43;;;2.90;;
3563;SDS011;1796;52.388;13.096;2023-12-20T04:41:32;5.97;;;2.70;;
3563;SDS011;1796;52.388;13.096;2023-12-20T04:43:58;16.83;;;2.30;;
3563;SDS011;1796;52.388;13.096;2023-12-20T04:46:25;4.70;;;2.00;;
3563;SDS011;1796;52.388;13.096;2023-12-20T04:48:52;6.23;;;2.10;;
3563;SDS011;1796;52.388;13.096;2023-12-20T04:51:19;12.17;;;2.27;;
3563;SDS011;1796;52.388;13.096;2023-12-20T04:53:46;7.13;;;2.87;;
3563;SDS011;1796;52.388;13.096;2023-12-20T04:56:14;19.03;;;2.97;;
3563;SDS011;1796;52.388;13.096;2023-12-20T04:58:41;2.23;;;1.57;;
3563;SDS011;1796;52.388;13.096;2023-12-20T05:01:08;7.27;;;2.80;;
3563;SDS011;1796;52.388;13.096;2023-12-20T05:03:36;5.60;;;1.73;;
3563;SDS011;1796;52.388;13.096;2023-12-20T05:06:03;10.60;;;1.60;;
3563;SDS011;1796;52.388;13.096;2023-12-20T05:08:30;12.40;;;2.37;;
3563;SDS011;1796;52.388;13.096;2023-12-20T05:10:57;10.37;;;2.00;;
3563;SDS011;1796;52.388;13.096;2023-12-20T05:13:25;8.50;;;2.27;;
3563;SDS011;1796;52.388;13.096;2023-12-20T05:15:52;11.37;;;1.90;;
3563;SDS011;1796;52.388;13.096;2023-12-20T05:18:19;6.93;;;1.33;;
3563;SDS011;1796;52.388;13.096;2023-12-20T05:20:46;7.73;;;2.00;;
3563;SDS011;1796;52.388;13.096;2023-12-20T05:23:13;10.03;;;2.10;;
3563;SDS011;1796;52.388;13.096;2023-12-20T05:25:40;8.00;;;1.90;;
3563;SDS011;1796;52.388;13.096;2023-12-20T05:28:07;9.13;;;1.50;;
3563;SDS011;1796;52.388;13.096;2023-12-20T05:30:35;11.53;;;1.93;;
3563;SDS011;1796;52.388;13.096;2023-12-20T05:33:02;5.70;;;1.70;;
3563;SDS011;1796;52.388;13.096;2023-12-20T05:35:29;9.77;;;2.70;;
3563;SDS011;1796;52.388;13.096;2023-12-20T05:37:56;10.80;;;2.53;;
3563;SDS011;1796;52.388;13.096;2023-12-20T05:40:22;4.83;;;1.43;;
3563;SDS011;1796;52.388;13.096;2023-12-20T05:42:49;15.03;;;2.30;;
3563;SDS011;1796;52.388;13.096;2023-12-20T05:45:16;5.43;;;2.13;;
3563;SDS011;1796;52.388;13.096;2023-12-20T05:47:44;12.93;;;2.30;;
3563;SDS011;1796;52.388;13.096;2023-12-20T05:50:11;12.60;;;2.27;;
3563;SDS011;1796;52.388;13.096;2023-12-20T05:52:38;5.00;;;1.80;;
3563;SDS011;1796;52.388;13.096;2023-12-20T05:55:05;5.63;;;2.00;;
3563;SDS011;1796;52.388;13.096;2023-12-20T05:57:32;5.17;;;1.83;;
3563;SDS011;1796;52.388;13.096;2023-12-20T05:59:59;5.23;;;1.77;;
3563;SDS011;1796;52.388;13.096;2023-12-20T06:02:26;6.43;;;2.10;;
3563;SDS011;1796;52.388;13.096;2023-12-20T06:04:54;9.50;;;2.30;;
3563;SDS011;1796;52.388;13.096;2023-12-20T06:07:21;8.43;;;1.57;;
3563;SDS011;1796;52.388;13.096;2023-12-20T06:09:48;7.67;;;1.70;;
3563;SDS011;1796;52.388;13.096;2023-12-20T06:12:14;10.60;;;2.07;;
3563;SDS011;1796;52.388;13.096;2023-12-20T06:14:41;10.97;;;2.60;;
3563;SDS011;1796;52.388;13.096;2023-12-20T06:17:08;7.43;;;2.00;;
3563;SDS011;1796;52.388;13.096;2023-12-20T06:19:35;10.03;;;2.30;;
3563;SDS011;1796;52.388;13.096;2023-12-20T06:22:03;14.93;;;2.20;;
3563;SDS011;1796;52.388;13.096;2023-12-20T06:24:30;17.00;;;2.50;;
3563;SDS011;1796;52.388;13.096;2023-12-20T06:26:58;12.47;;;1.80;;
3563;SDS011;1796;52.388;13.096;2023-12-20T06:29:26;7.20;;;1.80;;
3563;SDS011;1796;52.388;13.096;2023-12-20T06:31:52;9.27;;;2.53;;
3563;SDS011;1796;52.388;13.096;2023-12-20T06:34:19;9.90;;;2.07;;
3563;SDS011;1796;52.388;13.096;2023-12-20T06:36:46;21.17;;;3.13;;
3563;SDS011;1796;52.388;13.096;2023-12-20T06:39:14;3.37;;;1.97;;
3563;SDS011;1796;52.388;13.096;2023-12-20T06:41:41;3.40;;;1.63;;
3563;SDS011;1796;52.388;13.096;2023-12-20T06:44:08;19.57;;;2.90;;
3563;SDS011;1796;52.388;13.096;2023-12-20T06:46:35;10.60;;;2.30;;
3563;SDS011;1796;52.388;13.096;2023-12-20T06:49:02;13.77;;;2.30;;
3563;SDS011;1796;52.388;13.096;2023-12-20T06:51:29;8.53;;;2.33;;
3563;SDS011;1796;52.388;13.096;2023-12-20T06:53:56;3.47;;;1.93;;
3563;SDS011;1796;52.388;13.096;2023-12-20T06:56:24;6.53;;;1.80;;
3563;SDS011;1796;52.388;13.096;2023-12-20T06:58:51;2.50;;;2.00;;
3563;SDS011;1796;52.388;13.096;2023-12-20T07:01:18;10.33;;;2.20;;
3563;SDS011;1796;52.388;13.096;2023-12-20T07:03:45;7.30;;;2.00;;
3563;SDS011;1796;52.388;13.096;2023-12-20T07:06:12;10.57;;;2.00;;
3563;SDS011;1796;52.388;13.096;2023-12-20T07:08:40;5.83;;;1.50;;
3563;SDS011;1796;52.388;13.096;2023-12-20T07:11:07;8.43;;;1.90;;
3563;SDS011;1796;52.388;13.096;2023-12-20T07:13:38;9.63;;;1.90;;
3563;SDS011;1796;52.388;13.096;2023-12-20T07:16:05;9.80;;;1.87;;
3563;SDS011;1796;52.388;13.096;2023-12-20T07:18:32;5.57;;;2.13;;
3563;SDS011;1796;52.388;13.096;2023-12-20T07:20:59;12.17;;;2.07;;
3563;SDS011;1796;52.388;13.096;2023-12-20T07:23:26;9.00;;;2.00;;
3563;SDS011;1796;52.388;13.096;2023-12-20T07:25:53;6.53;;;2.20;;
3563;SDS011;1796;52.388;13.096;2023-12-20T07:28:20;9.10;;;2.10;;
3563;SDS011;1796;52.388;13.096;2023-12-20T07:30:48;18.27;;;2.20;;
3563;SDS011;1796;52.388;13.096;2023-12-20T07:33:15;9.97;;;2.20;;
3563;SDS011;1796;52.388;13.096;2023-12-20T07:35:41;14.07;;;2.17;;
3563;SDS011;1796;52.388;13.096;2023-12-20T07:38:10;9.63;;;2.47;;
3563;SDS011;1796;52.388;13.096;2023-12-20T07:40:37;9.77;;;1.80;;
3563;SDS011;1796;52.388;13.096;2023-12-20T07:43:04;5.00;;;1.53;;
3563;SDS011;1796;52.388;13.096;2023-12-20T07:45:31;14.60;;;2.90;;
3563;SDS011;1796;52.388;13.096;2023-12-20T07:47:59;14.57;;;2.40;;
3563;SDS011;1796;52.388;13.096;2023-12-20T07:50:26;5.93;;;1.57;;
3563;SDS011;1796;52.388;13.096;2023-12-20T07:52:53;5.10;;;1.40;;
3563;SDS011;1796;52.388;13.096;2023-12-20T07:55:20;20.50;;;2.10;;
3563;SDS011;1796;52.388;13.096;2023-12-20T07:57:47;13.03;;;1.70;;
3563;SDS011;1796;52.388;13.096;2023-12-20T08:00:14;7.00;;;1.60;;
3563;SDS011;1796;52.388;13.096;2023-12-20T08:02:42;3.47;;;1.27;;
3563;SDS011;1796;52.388;13.096;2023-12-20T08:05:10;11.27;;;2.07;;
3563;SDS011;1796;52.388;13.096;2023-12-20T08:07:38;7.93;;;2.40;;
3563;SDS011;1796;52.388;13.096;2023-12-20T08:10:05;6.70;;;2.30;;
3563;SDS011;1796;52.388;13.096;2023-12-20T08:12:33;10.10;;;1.70;;
3563;SDS011;1796;52.388;13.096;2023-12-20T08:15:00;7.53;;;1.33;;
3563;SDS011;1796;52.388;13.096;2023-12-20T08:17:27;3.67;;;1.80;;
3563;SDS011;1796;52.388;13.096;2023-12-20T08:19:54;9.43;;;1.83;;
3563;SDS011;1796;52.388;13.096;2023-12-20T08:22:22;4.57;;;1.40;;
3563;SDS011;1796;52.388;13.096;2023-12-20T08:24:49;6.67;;;1.60;;
3563;SDS011;1796;52.388;13.096;2023-12-20T08:27:16;11.30;;;2.00;;
3563;SDS011;1796;52.388;13.096;2023-12-20T08:29:43;10.70;;;1.67;;
3563;SDS011;1796;52.388;13.096;2023-12-20T08:32:10;12.13;;;2.50;;
3563;SDS011;1796;52.388;13.096;2023-12-20T08:34:37;8.63;;;2.10;;
3563;SDS011;1796;52.388;13.096;2023-12-20T08:37:04;2.00;;;1.43;;
3563;SDS011;1796;52.388;13.096;2023-12-20T08:39:32;9.97;;;1.53;;
3563;SDS011;1796;52.388;13.096;2023-12-20T08:41:59;10.23;;;2.03;;
3563;SDS011;1796;52.388;13.096;2023-12-20T08:44:26;3.47;;;1.90;;
3563;SDS011;1796;52.388;13.096;2023-12-20T08:46:53;12.67;;;1.70;;
3563;SDS011;1796;52.388;13.096;2023-12-20T08:49:22;3.30;;;1.90;;
3563;SDS011;1796;52.388;13.096;2023-12-20T08:51:49;11.00;;;2.47;;
3563;SDS011;1796;52.388;13.096;2023-12-20T08:54:16;9.63;;;1.60;;
3563;SDS011;1796;52.388;13.096;2023-12-20T08:56:45;6.37;;;1.40;;
3563;SDS011;1796;52.388;13.096;2023-12-20T08:59:12;3.70;;;2.00;;
3563;SDS011;1796;52.388;13.096;2023-12-20T09:01:39;2.77;;;1.60;;
3563;SDS011;1796;52.388;13.096;2023-12-20T09:04:06;9.53;;;1.87;;
3563;SDS011;1796;52.388;13.096;2023-12-20T09:06:33;9.93;;;2.13;;
3563;SDS011;1796;52.388;13.096;2023-12-20T09:08:59;1.43;;;1.33;;
3563;SDS011;1796;52.388;13.096;2023-12-20T09:11:26;7.50;;;1.90;;
3563;SDS011;1796;52.388;13.096;2023-12-20T09:13:54;13.63;;;2.10;;
3563;SDS011;1796;52.388;13.096;2023-12-20T09:16:21;10.13;;;2.03;;
3563;SDS011;1796;52.388;13.096;2023-12-20T09:18:48;12.83;;;1.70;;
3563;SDS011;1796;52.388;13.096;2023-12-20T09:21:15;12.60;;;2.03;;
3563;SDS011;1796;52.388;13.096;2023-12-20T09:23:42;5.73;;;2.00;;
3563;SDS011;1796;52.388;13.096;2023-12-20T09:26:09;4.23;;;1.53;;
3563;SDS011;1796;52.388;13.096;2023-12-20T09:28:35;3.83;;;1.90;;
3563;SDS011;1796;52.388;13.096;2023-12-20T09:31:05;6.00;;;1.53;;
3563;SDS011;1796;52.388;13.096;2023-12-20T09:33:32;15.30;;;2.17;;
3563;SDS011;1796;52.388;13.096;2023-12-20T09:35:59;10.53;;;2.03;;
3563;SDS011;1796;52.388;13.096;2023-12-20T09:38:26;6.90;;;2.00;;
3563;SDS011;1796;52.388;13.096;2023-12-20T09:40:53;7.10;;;1.93;;
3563;SDS011;1796;52.388;13.096;2023-12-20T09:43:20;10.87;;;2.00;;
3563;SDS011;1796;52.388;13.096;2023-12-20T09:45:50;9.73;;;1.90;;
3563;SDS011;1796;52.388;13.096;2023-12-20T09:48:21;8.30;;;2.80;;
3563;SDS011;1796;52.388;13.096;2023-12-20T09:50:48;7.77;;;2.30;;
3563;SDS011;1796;52.388;13.096;2023-12-20T09:53:15;8.73;;;2.30;;
3563;SDS011;1796;52.388;13.096;2023-12-20T09:55:44;9.30;;;2.03;;
3563;SDS011;1796;52.388;13.096;2023-12-20T09:58:11;3.77;;;1.67;;
3563;SDS011;1796;52.388;13.096;2023-12-20T10:00:37;10.90;;;2.63;;
3563;SDS011;1796;52.388;13.096;2023-12-20T10:03:05;7.53;;;1.90;;
3563;SDS011;1796;52.388;13.096;2023-12-20T10:05:34;7.03;;;2.17;;
3563;SDS011;1796;52.388;13.096;2023-12-20T10:08:01;9.60;;;2.10;;
3563;SDS011;1796;52.388;13.096;2023-12-20T10:10:28;7.20;;;1.83;;
3563;SDS011;1796;52.388;13.096;2023-12-20T10:13:02;8.23;;;1.97;;
3563;SDS011;1796;52.388;13.096;2023-12-20T10:15:29;6.90;;;2.00;;
3563;SDS011;1796;52.388;13.096;2023-12-20T10:17:56;7.70;;;1.93;;
3563;SDS011;1796;52.388;13.096;2023-12-20T10:20:24;7.30;;;1.80;;
3563;SDS011;1796;52.388;13.096;2023-12-20T10:22:52;13.93;;;2.00;;
3563;SDS011;1796;52.388;13.096;2023-12-20T10:25:20;9.70;;;2.70;;
3563;SDS011;1796;52.388;13.096;2023-12-20T10:27:47;7.50;;;2.53;;
3563;SDS011;1796;52.388;13.096;2023-12-20T10:30:15;12.90;;;2.07;;
3563;SDS011;1796;52.388;13.096;2023-12-20T10:32:42;12.90;;;1.97;;
3563;SDS011;1796;52.388;13.096;2023-12-20T10:35:09;5.80;;;2.07;;
3563;SDS011;1796;52.388;13.096;2023-12-20T10:37:36;9.23;;;2.50;;
3563;SDS011;1796;52.388;13.096;2023-12-20T10:40:05;11.70;;;2.30;;
3563;SDS011;1796;52.388;13.096;2023-12-20T10:42:32;7.17;;;1.50;;
3563;SDS011;1796;52.388;13.096;2023-12-20T10:45:01;6.73;;;1.97;;
3563;SDS011;1796;52.388;13.096;2023-12-20T10:47:28;12.77;;;2.80;;
3563;SDS011;1796;52.388;13.096;2023-12-20T10:49:58;17.63;;;2.33;;
3563;SDS011;1796;52.388;13.096;2023-12-20T10:52:26;21.47;;;2.87;;
3563;SDS011;1796;52.388;13.096;2023-12-20T10:54:55;12.93;;;2.00;;
3563;SDS011;1796;52.388;13.096;2023-12-20T10:57:23;6.57;;;1.70;;
3563;SDS011;1796;52.388;13.096;2023-12-20T10:59:54;13.87;;;2.17;;
3563;SDS011;1796;52.388;13.096;2023-12-20T11:02:27;2.10;;;1.60;;
3563;SDS011;1796;52.388;13.096;2023-12-20T11:04:56;6.10;;;1.83;;
3563;SDS011;1796;52.388;13.096;2023-12-20T11:07:32;7.03;;;1.70;;
3563;SDS011;1796;52.388;13.096;2023-12-20T11:10:03;9.07;;;2.27;;
3563;SDS011;1796;52.388;13.096;2023-12-20T11:12:43;7.30;;;2.03;;
3563;SDS011;1796;52.388;13.096;2023-12-20T11:15:17;9.40;;;1.93;;
3563;SDS011;1796;52.388;13.096;2023-12-20T11:17:44;8.57;;;4.00;;
3563;SDS011;1796;52.388;13.096;2023-12-20T11:20:12;14.40;;;2.37;;
3563;SDS011;1796;52.388;13.096;2023-12-20T11:22:39;11.17;;;2.20;;
3563;SDS011;1796;52.388;13.096;2023-12-20T11:25:17;3.73;;;1.90;;
3563;SDS011;1796;52.388;13.096;2023-12-20T11:28:06;4.07;;;1.43;;
3563;SDS011;1796;52.388;13.096;2023-12-20T11:30:40;8.40;;;2.13;;
3563;SDS011;1796;52.388;13.096;2023-12-20T11:33:07;9.87;;;2.67;;
3563;SDS011;1796;52.388;13.096;2023-12-20T11:35:35;5.37;;;1.77;;
3563;SDS011;1796;52.388;13.096;2023-12-20T11:38:07;7.20;;;1.97;;
3563;SDS011;1796;52.388;13.096;2023-12-20T11:40:36;6.90;;;1.73;;
3563;SDS011;1796;52.388;13.096;2023-12-20T11:43:09;13.10;;;2.07;;
3563;SDS011;1796;52.388;13.096;2023-12-20T11:45:55;9.70;;;1.90;;
3563;SDS011;1796;52.388;13.096;2023-12-20T11:48:38;11.43;;;2.43;;
3563;SDS011;1796;52.388;13.096;2023-12-20T11:51:15;9.97;;;1.90;;
3563;SDS011;1796;52.388;13.096;2023-12-20T11:54:04;4.23;;;1.47;;
3563;SDS011;1796;52.388;13.096;2023-12-20T11:56:42;6.00;;;1.93;;
3563;SDS011;1796;52.388;13.096;2023-12-20T12:02:11;7.27;;;1.90;;
3563;SDS011;1796;52.388;13.096;2023-12-20T12:07:40;6.83;;;1.77;;
3563;SDS011;1796;52.388;13.096;2023-12-20T12:10:28;17.10;;;1.63;;
3563;SDS011;1796;52.388;13.096;2023-12-20T12:15:47;7.03;;;2.30;;
3563;SDS011;1796;52.388;13.096;2023-12-20T12:18:16;6.23;;;1.70;;
3563;SDS011;1796;52.388;13.096;2023-12-20T12:20:59;5.47;;;1.63;;
3563;SDS011;1796;52.388;13.096;2023-12-20T12:23:33;8.67;;;2.00;;
3563;SDS011;1796;52.388;13.096;2023-12-20T12:26:06;3.13;;;1.67;;
3563;SDS011;1796;52.388;13.096;2023-12-20T12:28:37;8.83;;;1.90;;
3563;SDS011;1796;52.388;13.096;2023-12-20T12:31:23;17.30;;;1.93;;
3563;SDS011;1796;52.388;13.096;2023-12-20T12:33:53;4.80;;;1.90;;
3563;SDS011;1796;52.388;13.096;2023-12-20T12:36:35;5.03;;;1.60;;
3563;SDS011;1796;52.388;13.096;2023-12-20T12:39:02;6.30;;;2.10;;
3563;SDS011;1796;52.388;13.096;2023-12-20T12:41:43;4.80;;;1.87;;
3563;SDS011;1796;52.388;13.096;2023-12-20T12:44:13;3.37;;;1.63;;
3563;SDS011;1796;52.388;13.096;2023-12-20T12:46:41;11.93;;;2.17;;
3563;SDS011;1796;52.388;13.096;2023-12-20T12:49:11;5.00;;;2.20;;
3563;SDS011;1796;52.388;13.096;2023-12-20T12:51:47;6.87;;;2.40;;
3563;SDS011;1796;52.388;13.096;2023-12-20T12:54:25;7.03;;;1.87;;
3563;SDS011;1796;52.388;13.096;2023-12-20T12:56:56;7.17;;;2.10;;
3563;SDS011;1796;52.388;13.096;2023-12-20T12:59:23;7.30;;;2.10;;
3563;SDS011;1796;52.388;13.096;2023-12-20T13:01:56;5.43;;;2.60;;
3563;SDS011;1796;52.388;13.096;2023-12-20T13:04:36;9.90;;;2.50;;
3563;SDS011;1796;52.388;13.096;2023-12-20T13:07:06;9.37;;;2.67;;
3563;SDS011;1796;52.388;13.096;2023-12-20T13:40:37;1.13;;;0.90;;
3563;SDS011;1796;52.388;13.096;2023-12-20T13:43:04;5.80;;;1.10;;
3563;SDS011;1796;52.388;13.096;2023-12-20T13:45:31;1.37;;;1.27;;
3563;SDS011;1796;52.388;13.096;2023-12-20T13:47:58;1.13;;;1.00;;
3563;SDS011;1796;52.388;13.096;2023-12-20T13:50:38;3.10;;;1.10;;
3563;SDS011;1796;52.388;13.096;2023-12-20T13:53:37;1.00;;;0.90;;
3563;SDS011;1796;52.388;13.096;2023-12-20T13:56:40;0.70;;;0.70;;
3563;SDS011;1796;52.388;13.096;2023-12-20T13:59:35;3.70;;;1.00;;
3563;SDS011;1796;52.388;13.096;2023-12-20T14:02:02;0.70;;;0.70;;
3563;SDS011;1796;52.388;13.096;2023-12-20T14:04:29;0.70;;;0.70;;
3563;SDS011;1796;52.388;13.096;2023-12-20T14:06:59;1.30;;;1.20;;
3563;SDS011;1796;52.388;13.096;2023-12-20T14:09:28;4.00;;;1.10;;
3563;SDS011;1796;52.388;13.096;2023-12-20T14:12:01;0.90;;;0.90;;
3563;SDS011;1796;52.388;13.096;2023-12-20T14:14:28;3.03;;;1.90;;
3563;SDS011;1796;52.388;13.096;2023-12-20T14:16:55;4.03;;;1.10;;
3563;SDS011;1796;52.388;13.096;2023-12-20T14:19:24;3.50;;;1.50;;
3563;SDS011;1796;52.388;13.096;2023-12-20T14:21:51;3.00;;;1.63;;
3563;SDS011;1796;52.388;13.096;2023-12-20T14:24:18;3.33;;;1.40;;
3563;SDS011;1796;52.388;13.096;2023-12-20T14:26:46;1.53;;;1.10;;
3563;SDS011;1796;52.388;13.096;2023-12-20T14:29:13;2.93;;;1.03;;
3563;SDS011;1796;52.388;13.096;2023-12-20T14:31:40;4.27;;;1.27;;
3563;SDS011;1796;52.388;13.096;2023-12-20T14:34:07;3.77;;;1.80;;
3563;SDS011;1796;52.388;13.096;2023-12-20T14:36:34;3.63;;;1.40;;
3563;SDS011;1796;52.388;13.096;2023-12-20T14:39:01;3.30;;;1.50;;
3563;SDS011;1796;52.388;13.096;2023-12-20T14:41:28;2.90;;;1.40;;
3563;SDS011;1796;52.388;13.096;2023-12-20T14:43:56;3.80;;;1.30;;
3563;SDS011;1796;52.388;13.096;2023-12-20T14:46:24;1.53;;;1.00;;
3563;SDS011;1796;52.388;13.096;2023-12-20T14:48:52;2.93;;;1.30;;
3563;SDS011;1796;52.388;13.096;2023-12-20T14:51:18;1.43;;;1.23;;
3563;SDS011;1796;52.388;13.096;2023-12-20T14:53:45;4.37;;;1.67;;
3563;SDS011;1796;52.388;13.096;2023-12-20T14:56:12;1.20;;;1.10;;
3563;SDS011;1796;52.388;13.096;2023-12-20T14:58:40;4.90;;;1.23;;
3563;SDS011;1796;52.388;13.096;2023-12-20T15:01:08;3.97;;;1.20;;
3563;SDS011;1796;52.388;13.096;2023-12-20T15:03:35;4.30;;;1.27;;
3563;SDS011;1796;52.388;13.096;2023-12-20T15:06:02;1.70;;;1.60;;
3563;SDS011;1796;52.388;13.096;2023-12-20T15:08:29;1.33;;;1.23;;
3563;SDS011;1796;52.388;13.096;2023-12-20T15:10:55;1.90;;;1.10;;
3563;SDS011;1796;52.388;13.096;2023-12-20T15:13:22;4.00;;;2.07;;
3563;SDS011;1796;52.388;13.096;2023-12-20T15:15:49;3.50;;;1.40;;
3563;SDS011;1796;52.388;13.096;2023-12-20T15:18:17;4.30;;;1.10;;
3563;SDS011;1796;52.388;13.096;2023-12-20T15:20:44;4.33;;;1.33;;
3563;SDS011;1796;52.388;13.096;2023-12-20T15:23:12;2.50;;;1.90;;
3563;SDS011;1796;52.388;13.096;2023-12-20T15:25:40;3.63;;;1.37;;
3563;SDS011;1796;52.388;13.096;2023-12-20T15:28:06;14.53;;;1.20;;
3563;SDS011;1796;52.388;13.096;2023-12-20T15:30:33;6.50;;;0.90;;
3563;SDS011;1796;52.388;13.096;2023-12-20T15:33:01;0.93;;;0.90;;
3563;SDS011;1796;52.388;13.096;2023-12-20T15:35:29;1.23;;;1.23;;
3563;SDS011;1796;52.388;13.096;2023-12-20T15:37:57;2.03;;;0.97;;
3563;SDS011;1796;52.388;13.096;2023-12-20T15:40:24;3.20;;;1.10;;
3563;SDS011;1796;52.388;13.096;2023-12-20T15:42:51;2.03;;;1.37;;
3563;SDS011;1796;52.388;13.096;2023-12-20T15:45:19;5.47;;;1.50;;